<?xml version="1.0" encoding="UTF-8" standalone="no" ?>
<gpx xmlns="http://www.topografix.com/GPX/1/1" xmlns:xsi="http://www.w3.org/2001/XMLSchema-instance" xsi:schemaLocation="http://www.topografix.com/GPX/1/1 http://www.topografix.com/GPX/1/1/gpx.xsd" version="1.1" creator="VisuGPX - https://www.visugpx.com">
  <metadata>
    <name>ARQUES LA SEYNE SUR MER 1497 KM</name>
    <desc><![CDATA[Rando de Arques dans le Pas de Calais jusque La Seyne sur Mer dans le Var, 1497 km]]></desc>
  </metadata>
  <trk>
    <name><![CDATA[35 - TRAMAYES PREPIERES 23.6 KM]]></name>
    <extensions>
      <line xmlns="http://www.topografix.com/GPX/gpx_style/0/2">
        <color>008888</color>
        <width>4</width>
      </line>
    </extensions>
    <trkseg>
      <trkpt lat="46.30768" lon="4.60053">
        <ele>466</ele>
        <time>2021-11-17T19:15:47+01:00</time>
      </trkpt>
      <trkpt lat="46.30813" lon="4.59981">
        <ele>472</ele>
        <time>2021-11-17T19:15:52+01:00</time>
      </trkpt>
      <trkpt lat="46.30806" lon="4.59745">
        <ele>494</ele>
        <time>2021-11-17T19:15:57+01:00</time>
      </trkpt>
      <trkpt lat="46.30873" lon="4.59517">
        <ele>514</ele>
        <time>2021-11-17T19:16:02+01:00</time>
      </trkpt>
      <trkpt lat="46.30831" lon="4.59347">
        <ele>524</ele>
        <time>2021-11-17T19:16:07+01:00</time>
      </trkpt>
      <trkpt lat="46.3081" lon="4.59137">
        <ele>518</ele>
        <time>2021-11-17T19:16:12+01:00</time>
      </trkpt>
      <trkpt lat="46.30781" lon="4.58949">
        <ele>508</ele>
        <time>2021-11-17T19:16:17+01:00</time>
      </trkpt>
      <trkpt lat="46.30753" lon="4.58893">
        <ele>499</ele>
        <time>2021-11-17T19:16:22+01:00</time>
      </trkpt>
      <trkpt lat="46.3076" lon="4.588">
        <ele>496</ele>
        <time>2021-11-17T19:16:27+01:00</time>
      </trkpt>
      <trkpt lat="46.30741" lon="4.58706">
        <ele>486</ele>
        <time>2021-11-17T19:16:32+01:00</time>
      </trkpt>
      <trkpt lat="46.30711" lon="4.58627">
        <ele>477</ele>
        <time>2021-11-17T19:16:37+01:00</time>
      </trkpt>
      <trkpt lat="46.30705" lon="4.58566">
        <ele>473</ele>
        <time>2021-11-17T19:16:42+01:00</time>
      </trkpt>
      <trkpt lat="46.30675" lon="4.58433">
        <ele>460</ele>
        <time>2021-11-17T19:16:47+01:00</time>
      </trkpt>
      <trkpt lat="46.30662" lon="4.58287">
        <ele>448</ele>
        <time>2021-11-17T19:16:52+01:00</time>
      </trkpt>
      <trkpt lat="46.30689" lon="4.58202">
        <ele>441</ele>
        <time>2021-11-17T19:16:57+01:00</time>
      </trkpt>
      <trkpt lat="46.30621" lon="4.58165">
        <ele>428</ele>
        <time>2021-11-17T19:17:02+01:00</time>
      </trkpt>
      <trkpt lat="46.30582" lon="4.58026">
        <ele>415</ele>
        <time>2021-11-17T19:17:07+01:00</time>
      </trkpt>
      <trkpt lat="46.30551" lon="4.57864">
        <ele>407</ele>
        <time>2021-11-17T19:17:12+01:00</time>
      </trkpt>
      <trkpt lat="46.30532" lon="4.57805">
        <ele>408</ele>
        <time>2021-11-17T19:17:17+01:00</time>
      </trkpt>
      <trkpt lat="46.30486" lon="4.57738">
        <ele>410</ele>
        <time>2021-11-17T19:17:22+01:00</time>
      </trkpt>
      <trkpt lat="46.30456" lon="4.57539">
        <ele>405</ele>
        <time>2021-11-17T19:17:27+01:00</time>
      </trkpt>
      <trkpt lat="46.30423" lon="4.57433">
        <ele>400</ele>
        <time>2021-11-17T19:17:32+01:00</time>
      </trkpt>
      <trkpt lat="46.30423" lon="4.57365">
        <ele>395</ele>
        <time>2021-11-17T19:17:37+01:00</time>
      </trkpt>
      <trkpt lat="46.30434" lon="4.57206">
        <ele>381</ele>
        <time>2021-11-17T19:17:42+01:00</time>
      </trkpt>
      <trkpt lat="46.3042" lon="4.57086">
        <ele>369</ele>
        <time>2021-11-17T19:17:47+01:00</time>
      </trkpt>
      <trkpt lat="46.30386" lon="4.56956">
        <ele>360</ele>
        <time>2021-11-17T19:17:52+01:00</time>
      </trkpt>
      <trkpt lat="46.30351" lon="4.56893">
        <ele>352</ele>
        <time>2021-11-17T19:17:57+01:00</time>
      </trkpt>
      <trkpt lat="46.30404" lon="4.56637">
        <ele>331</ele>
        <time>2021-11-17T19:18:02+01:00</time>
      </trkpt>
      <trkpt lat="46.30401" lon="4.56514">
        <ele>320</ele>
        <time>2021-11-17T19:18:07+01:00</time>
      </trkpt>
      <trkpt lat="46.30383" lon="4.5632">
        <ele>322</ele>
        <time>2021-11-17T19:18:12+01:00</time>
      </trkpt>
      <trkpt lat="46.30366" lon="4.56155">
        <ele>328</ele>
        <time>2021-11-17T19:18:17+01:00</time>
      </trkpt>
      <trkpt lat="46.30309" lon="4.56">
        <ele>337</ele>
        <time>2021-11-17T19:18:22+01:00</time>
      </trkpt>
      <trkpt lat="46.30309" lon="4.55884">
        <ele>340</ele>
        <time>2021-11-17T19:18:27+01:00</time>
      </trkpt>
      <trkpt lat="46.30154" lon="4.55519">
        <ele>342</ele>
        <time>2021-11-17T19:18:32+01:00</time>
      </trkpt>
      <trkpt lat="46.29996" lon="4.55324">
        <ele>345</ele>
        <time>2021-11-17T19:18:37+01:00</time>
      </trkpt>
      <trkpt lat="46.29358" lon="4.5443">
        <ele>344</ele>
        <time>2021-11-17T19:18:42+01:00</time>
      </trkpt>
      <trkpt lat="46.29279" lon="4.54421">
        <ele>349</ele>
        <time>2021-11-17T19:18:47+01:00</time>
      </trkpt>
      <trkpt lat="46.29208" lon="4.54394">
        <ele>352</ele>
        <time>2021-11-17T19:18:52+01:00</time>
      </trkpt>
      <trkpt lat="46.29059" lon="4.54118">
        <ele>355</ele>
        <time>2021-11-17T19:18:57+01:00</time>
      </trkpt>
      <trkpt lat="46.28941" lon="4.53974">
        <ele>360</ele>
        <time>2021-11-17T19:19:02+01:00</time>
      </trkpt>
      <trkpt lat="46.2881" lon="4.53895">
        <ele>360</ele>
        <time>2021-11-17T19:19:07+01:00</time>
      </trkpt>
      <trkpt lat="46.28684" lon="4.53779">
        <ele>358</ele>
        <time>2021-11-17T19:19:12+01:00</time>
      </trkpt>
      <trkpt lat="46.28594" lon="4.53665">
        <ele>360</ele>
        <time>2021-11-17T19:19:17+01:00</time>
      </trkpt>
      <trkpt lat="46.28558" lon="4.53593">
        <ele>360</ele>
        <time>2021-11-17T19:19:22+01:00</time>
      </trkpt>
      <trkpt lat="46.28511" lon="4.5362">
        <ele>365</ele>
        <time>2021-11-17T19:19:27+01:00</time>
      </trkpt>
      <trkpt lat="46.2848" lon="4.53509">
        <ele>369</ele>
        <time>2021-11-17T19:19:32+01:00</time>
      </trkpt>
      <trkpt lat="46.28469" lon="4.53402">
        <ele>375</ele>
        <time>2021-11-17T19:19:37+01:00</time>
      </trkpt>
      <trkpt lat="46.28425" lon="4.53509">
        <ele>379</ele>
        <time>2021-11-17T19:19:42+01:00</time>
      </trkpt>
      <trkpt lat="46.28386" lon="4.53504">
        <ele>387</ele>
        <time>2021-11-17T19:19:47+01:00</time>
      </trkpt>
      <trkpt lat="46.2829" lon="4.53408">
        <ele>410</ele>
        <time>2021-11-17T19:19:52+01:00</time>
      </trkpt>
      <trkpt lat="46.28204" lon="4.53363">
        <ele>422</ele>
        <time>2021-11-17T19:19:57+01:00</time>
      </trkpt>
      <trkpt lat="46.28128" lon="4.53236">
        <ele>439</ele>
        <time>2021-11-17T19:20:02+01:00</time>
      </trkpt>
      <trkpt lat="46.28023" lon="4.53172">
        <ele>455</ele>
        <time>2021-11-17T19:20:07+01:00</time>
      </trkpt>
      <trkpt lat="46.27955" lon="4.53058">
        <ele>468</ele>
        <time>2021-11-17T19:20:12+01:00</time>
      </trkpt>
      <trkpt lat="46.27823" lon="4.52962">
        <ele>477</ele>
        <time>2021-11-17T19:20:17+01:00</time>
      </trkpt>
      <trkpt lat="46.27793" lon="4.52985">
        <ele>473</ele>
        <time>2021-11-17T19:20:22+01:00</time>
      </trkpt>
      <trkpt lat="46.27683" lon="4.52842">
        <ele>477</ele>
        <time>2021-11-17T19:20:27+01:00</time>
      </trkpt>
      <trkpt lat="46.27669" lon="4.52809">
        <ele>478</ele>
        <time>2021-11-17T19:20:32+01:00</time>
      </trkpt>
      <trkpt lat="46.2767" lon="4.52771">
        <ele>482</ele>
        <time>2021-11-17T19:20:37+01:00</time>
      </trkpt>
      <trkpt lat="46.27612" lon="4.52747">
        <ele>488</ele>
        <time>2021-11-17T19:20:42+01:00</time>
      </trkpt>
      <trkpt lat="46.27618" lon="4.52696">
        <ele>495</ele>
        <time>2021-11-17T19:20:47+01:00</time>
      </trkpt>
      <trkpt lat="46.27531" lon="4.52556">
        <ele>519</ele>
        <time>2021-11-17T19:20:52+01:00</time>
      </trkpt>
      <trkpt lat="46.27481" lon="4.52368">
        <ele>549</ele>
        <time>2021-11-17T19:20:57+01:00</time>
      </trkpt>
      <trkpt lat="46.27329" lon="4.52189">
        <ele>574</ele>
        <time>2021-11-17T19:21:02+01:00</time>
      </trkpt>
      <trkpt lat="46.2724" lon="4.52136">
        <ele>578</ele>
        <time>2021-11-17T19:21:07+01:00</time>
      </trkpt>
      <trkpt lat="46.2716" lon="4.52144">
        <ele>581</ele>
        <time>2021-11-17T19:21:12+01:00</time>
      </trkpt>
      <trkpt lat="46.27065" lon="4.52118">
        <ele>587</ele>
        <time>2021-11-17T19:21:17+01:00</time>
      </trkpt>
      <trkpt lat="46.26952" lon="4.51975">
        <ele>614</ele>
        <time>2021-11-17T19:21:22+01:00</time>
      </trkpt>
      <trkpt lat="46.26912" lon="4.51904">
        <ele>620</ele>
        <time>2021-11-17T19:21:27+01:00</time>
      </trkpt>
      <trkpt lat="46.26847" lon="4.51857">
        <ele>614</ele>
        <time>2021-11-17T19:21:32+01:00</time>
      </trkpt>
      <trkpt lat="46.26776" lon="4.51734">
        <ele>615</ele>
        <time>2021-11-17T19:21:37+01:00</time>
      </trkpt>
      <trkpt lat="46.26743" lon="4.51651">
        <ele>625</ele>
        <time>2021-11-17T19:21:42+01:00</time>
      </trkpt>
      <trkpt lat="46.26363" lon="4.51148">
        <ele>623</ele>
        <time>2021-11-17T19:21:47+01:00</time>
      </trkpt>
      <trkpt lat="46.26325" lon="4.51071">
        <ele>620</ele>
        <time>2021-11-17T19:21:52+01:00</time>
      </trkpt>
      <trkpt lat="46.26243" lon="4.51056">
        <ele>614</ele>
        <time>2021-11-17T19:21:57+01:00</time>
      </trkpt>
      <trkpt lat="46.26175" lon="4.51007">
        <ele>609</ele>
        <time>2021-11-17T19:22:02+01:00</time>
      </trkpt>
      <trkpt lat="46.26064" lon="4.51058">
        <ele>611</ele>
        <time>2021-11-17T19:22:07+01:00</time>
      </trkpt>
      <trkpt lat="46.25831" lon="4.51015">
        <ele>629</ele>
        <time>2021-11-17T19:22:12+01:00</time>
      </trkpt>
      <trkpt lat="46.2578" lon="4.50861">
        <ele>640</ele>
        <time>2021-11-17T19:22:17+01:00</time>
      </trkpt>
      <trkpt lat="46.25777" lon="4.50794">
        <ele>647</ele>
        <time>2021-11-17T19:22:22+01:00</time>
      </trkpt>
      <trkpt lat="46.257" lon="4.50726">
        <ele>653</ele>
        <time>2021-11-17T19:22:27+01:00</time>
      </trkpt>
      <trkpt lat="46.25648" lon="4.50612">
        <ele>661</ele>
        <time>2021-11-17T19:22:32+01:00</time>
      </trkpt>
      <trkpt lat="46.2554" lon="4.5049">
        <ele>678</ele>
        <time>2021-11-17T19:22:37+01:00</time>
      </trkpt>
      <trkpt lat="46.25415" lon="4.50419">
        <ele>675</ele>
        <time>2021-11-17T19:22:42+01:00</time>
      </trkpt>
      <trkpt lat="46.25216" lon="4.50149">
        <ele>683</ele>
        <time>2021-11-17T19:22:47+01:00</time>
      </trkpt>
      <trkpt lat="46.25185" lon="4.50058">
        <ele>690</ele>
        <time>2021-11-17T19:22:52+01:00</time>
      </trkpt>
      <trkpt lat="46.25118" lon="4.49953">
        <ele>696</ele>
        <time>2021-11-17T19:22:57+01:00</time>
      </trkpt>
      <trkpt lat="46.25056" lon="4.49848">
        <ele>704</ele>
        <time>2021-11-17T19:23:02+01:00</time>
      </trkpt>
      <trkpt lat="46.25025" lon="4.49758">
        <ele>707</ele>
        <time>2021-11-17T19:23:07+01:00</time>
      </trkpt>
      <trkpt lat="46.25006" lon="4.49692">
        <ele>704</ele>
        <time>2021-11-17T19:23:12+01:00</time>
      </trkpt>
      <trkpt lat="46.24804" lon="4.49574">
        <ele>706</ele>
        <time>2021-11-17T19:23:17+01:00</time>
      </trkpt>
      <trkpt lat="46.2473" lon="4.49413">
        <ele>698</ele>
        <time>2021-11-17T19:23:22+01:00</time>
      </trkpt>
      <trkpt lat="46.2465" lon="4.49337">
        <ele>706</ele>
        <time>2021-11-17T19:23:27+01:00</time>
      </trkpt>
      <trkpt lat="46.24648" lon="4.49269">
        <ele>704</ele>
        <time>2021-11-17T19:23:32+01:00</time>
      </trkpt>
      <trkpt lat="46.24673" lon="4.49179">
        <ele>695</ele>
        <time>2021-11-17T19:23:37+01:00</time>
      </trkpt>
      <trkpt lat="46.24658" lon="4.48835">
        <ele>693</ele>
        <time>2021-11-17T19:23:42+01:00</time>
      </trkpt>
      <trkpt lat="46.24455" lon="4.48617">
        <ele>689</ele>
        <time>2021-11-17T19:23:47+01:00</time>
      </trkpt>
      <trkpt lat="46.24427" lon="4.48539">
        <ele>692</ele>
        <time>2021-11-17T19:23:52+01:00</time>
      </trkpt>
      <trkpt lat="46.24463" lon="4.48447">
        <ele>677</ele>
        <time>2021-11-17T19:23:57+01:00</time>
      </trkpt>
      <trkpt lat="46.24332" lon="4.48054">
        <ele>660</ele>
        <time>2021-11-17T19:24:02+01:00</time>
      </trkpt>
      <trkpt lat="46.24265" lon="4.4784">
        <ele>652</ele>
        <time>2021-11-17T19:24:07+01:00</time>
      </trkpt>
      <trkpt lat="46.2424" lon="4.47679">
        <ele>650</ele>
        <time>2021-11-17T19:24:12+01:00</time>
      </trkpt>
      <trkpt lat="46.24136" lon="4.47927">
        <ele>670</ele>
        <time>2021-11-17T19:24:17+01:00</time>
      </trkpt>
      <trkpt lat="46.24056" lon="4.48005">
        <ele>693</ele>
        <time>2021-11-17T19:24:22+01:00</time>
      </trkpt>
      <trkpt lat="46.23913" lon="4.48009">
        <ele>714</ele>
        <time>2021-11-17T19:24:27+01:00</time>
      </trkpt>
      <trkpt lat="46.2381" lon="4.48142">
        <ele>726</ele>
        <time>2021-11-17T19:24:32+01:00</time>
      </trkpt>
      <trkpt lat="46.23709" lon="4.48438">
        <ele>734</ele>
        <time>2021-11-17T19:24:37+01:00</time>
      </trkpt>
      <trkpt lat="46.23537" lon="4.4864">
        <ele>734</ele>
        <time>2021-11-17T19:24:42+01:00</time>
      </trkpt>
      <trkpt lat="46.2335" lon="4.48773">
        <ele>729</ele>
        <time>2021-11-17T19:24:47+01:00</time>
      </trkpt>
      <trkpt lat="46.23305" lon="4.4873">
        <ele>732</ele>
        <time>2021-11-17T19:24:52+01:00</time>
      </trkpt>
      <trkpt lat="46.23106" lon="4.48657">
        <ele>754</ele>
        <time>2021-11-17T19:24:57+01:00</time>
      </trkpt>
      <trkpt lat="46.22928" lon="4.48648">
        <ele>772</ele>
        <time>2021-11-17T19:25:02+01:00</time>
      </trkpt>
      <trkpt lat="46.2283" lon="4.48571">
        <ele>789</ele>
        <time>2021-11-17T19:25:07+01:00</time>
      </trkpt>
      <trkpt lat="46.22753" lon="4.48593">
        <ele>801</ele>
        <time>2021-11-17T19:25:12+01:00</time>
      </trkpt>
      <trkpt lat="46.22726" lon="4.48576">
        <ele>803</ele>
        <time>2021-11-17T19:25:17+01:00</time>
      </trkpt>
      <trkpt lat="46.2269" lon="4.48511">
        <ele>807</ele>
        <time>2021-11-17T19:25:22+01:00</time>
      </trkpt>
      <trkpt lat="46.22503" lon="4.48344">
        <ele>827</ele>
        <time>2021-11-17T19:25:27+01:00</time>
      </trkpt>
      <trkpt lat="46.22367" lon="4.48133">
        <ele>837</ele>
        <time>2021-11-17T19:25:32+01:00</time>
      </trkpt>
      <trkpt lat="46.22257" lon="4.48095">
        <ele>839</ele>
        <time>2021-11-17T19:25:37+01:00</time>
      </trkpt>
      <trkpt lat="46.22022" lon="4.48129">
        <ele>866</ele>
        <time>2021-11-17T19:25:42+01:00</time>
      </trkpt>
      <trkpt lat="46.21714" lon="4.48078">
        <ele>892</ele>
        <time>2021-11-17T19:25:47+01:00</time>
      </trkpt>
      <trkpt lat="46.21485" lon="4.48142">
        <ele>898</ele>
        <time>2021-11-17T19:25:52+01:00</time>
      </trkpt>
      <trkpt lat="46.21405" lon="4.48189">
        <ele>905</ele>
        <time>2021-11-17T19:25:57+01:00</time>
      </trkpt>
      <trkpt lat="46.21292" lon="4.48331">
        <ele>904</ele>
        <time>2021-11-17T19:26:02+01:00</time>
      </trkpt>
      <trkpt lat="46.21051" lon="4.4843">
        <ele>918</ele>
        <time>2021-11-17T19:26:07+01:00</time>
      </trkpt>
      <trkpt lat="46.20811" lon="4.48318">
        <ele>939</ele>
        <time>2021-11-17T19:26:12+01:00</time>
      </trkpt>
      <trkpt lat="46.2046" lon="4.48627">
        <ele>949</ele>
        <time>2021-11-17T19:26:17+01:00</time>
      </trkpt>
      <trkpt lat="46.20229" lon="4.48558">
        <ele>961</ele>
        <time>2021-11-17T19:26:22+01:00</time>
      </trkpt>
      <trkpt lat="46.20143" lon="4.48576">
        <ele>962</ele>
        <time>2021-11-17T19:26:27+01:00</time>
      </trkpt>
      <trkpt lat="46.20095" lon="4.48618">
        <ele>966</ele>
        <time>2021-11-17T19:26:32+01:00</time>
      </trkpt>
      <trkpt lat="46.20024" lon="4.4858">
        <ele>967</ele>
        <time>2021-11-17T19:26:37+01:00</time>
      </trkpt>
      <trkpt lat="46.19929" lon="4.48318">
        <ele>938</ele>
        <time>2021-11-17T19:26:42+01:00</time>
      </trkpt>
      <trkpt lat="46.19756" lon="4.48138">
        <ele>915</ele>
        <time>2021-11-17T19:26:47+01:00</time>
      </trkpt>
      <trkpt lat="46.1978" lon="4.47936">
        <ele>908</ele>
        <time>2021-11-17T19:26:52+01:00</time>
      </trkpt>
      <trkpt lat="46.19938" lon="4.47782">
        <ele>905</ele>
        <time>2021-11-17T19:26:57+01:00</time>
      </trkpt>
      <trkpt lat="46.19991" lon="4.47584">
        <ele>888</ele>
        <time>2021-11-17T19:27:02+01:00</time>
      </trkpt>
      <trkpt lat="46.20012" lon="4.47408">
        <ele>871</ele>
        <time>2021-11-17T19:27:07+01:00</time>
      </trkpt>
      <trkpt lat="46.19843" lon="4.47164">
        <ele>846</ele>
        <time>2021-11-17T19:27:12+01:00</time>
      </trkpt>
      <trkpt lat="46.19712" lon="4.47099">
        <ele>831</ele>
        <time>2021-11-17T19:27:17+01:00</time>
      </trkpt>
      <trkpt lat="46.1956" lon="4.46889">
        <ele>808</ele>
        <time>2021-11-17T19:27:22+01:00</time>
      </trkpt>
      <trkpt lat="46.19635" lon="4.46674">
        <ele>771</ele>
        <time>2021-11-17T19:27:27+01:00</time>
      </trkpt>
      <trkpt lat="46.19587" lon="4.46447">
        <ele>758</ele>
        <time>2021-11-17T19:27:32+01:00</time>
      </trkpt>
      <trkpt lat="46.19605" lon="4.46365">
        <ele>741</ele>
        <time>2021-11-17T19:27:37+01:00</time>
      </trkpt>
      <trkpt lat="46.19638" lon="4.46305">
        <ele>725</ele>
        <time>2021-11-17T19:27:42+01:00</time>
      </trkpt>
      <trkpt lat="46.19626" lon="4.46125">
        <ele>708</ele>
        <time>2021-11-17T19:27:47+01:00</time>
      </trkpt>
      <trkpt lat="46.1962" lon="4.45992">
        <ele>691</ele>
        <time>2021-11-17T19:27:52+01:00</time>
      </trkpt>
      <trkpt lat="46.19638" lon="4.45906">
        <ele>682</ele>
        <time>2021-11-17T19:27:57+01:00</time>
      </trkpt>
      <trkpt lat="46.19614" lon="4.4582">
        <ele>680</ele>
        <time>2021-11-17T19:28:02+01:00</time>
      </trkpt>
      <trkpt lat="46.1956" lon="4.45554">
        <ele>666</ele>
        <time>2021-11-17T19:28:07+01:00</time>
      </trkpt>
      <trkpt lat="46.1929" lon="4.45228">
        <ele>634</ele>
        <time>2021-11-17T19:28:12+01:00</time>
      </trkpt>
      <trkpt lat="46.19323" lon="4.45086">
        <ele>619</ele>
        <time>2021-11-17T19:28:17+01:00</time>
      </trkpt>
      <trkpt lat="46.19352" lon="4.45018">
        <ele>616</ele>
        <time>2021-11-17T19:28:22+01:00</time>
      </trkpt>
      <trkpt lat="46.19349" lon="4.44928">
        <ele>617</ele>
        <time>2021-11-17T19:28:27+01:00</time>
      </trkpt>
      <trkpt lat="46.1937" lon="4.44885">
        <ele>616</ele>
        <time>2021-11-17T19:28:32+01:00</time>
      </trkpt>
      <trkpt lat="46.19361" lon="4.44808">
        <ele>621</ele>
        <time>2021-11-17T19:28:37+01:00</time>
      </trkpt>
      <trkpt lat="46.19409" lon="4.44554">
        <ele>630</ele>
        <time>2021-11-17T19:28:42+01:00</time>
      </trkpt>
      <trkpt lat="46.19287" lon="4.44366">
        <ele>632</ele>
        <time>2021-11-17T19:28:47+01:00</time>
      </trkpt>
      <trkpt lat="46.19274" lon="4.44179">
        <ele>633</ele>
        <time>2021-11-17T19:28:52+01:00</time>
      </trkpt>
      <trkpt lat="46.19248" lon="4.44085">
        <ele>638</ele>
        <time>2021-11-17T19:28:57+01:00</time>
      </trkpt>
      <trkpt lat="46.19207" lon="4.43993">
        <ele>648</ele>
        <time>2021-11-17T19:29:02+01:00</time>
      </trkpt>
      <trkpt lat="46.19192" lon="4.43819">
        <ele>660</ele>
        <time>2021-11-17T19:29:07+01:00</time>
      </trkpt>
      <trkpt lat="46.19194" lon="4.43738">
        <ele>658</ele>
        <time>2021-11-17T19:29:12+01:00</time>
      </trkpt>
      <trkpt lat="46.19198" lon="4.43709">
        <ele>657</ele>
        <time>2021-11-17T19:29:17+01:00</time>
      </trkpt>
      <trkpt lat="46.1916" lon="4.43706">
        <ele>657</ele>
        <time>2021-11-17T19:29:22+01:00</time>
      </trkpt>
      <trkpt lat="46.19139" lon="4.43679">
        <ele>655</ele>
        <time>2021-11-17T19:29:27+01:00</time>
      </trkpt>
    </trkseg>
  </trk>
</gpx>